sensor_id;sensor_type;location;lat;lon;timestamp;temperature;humidity
13344;DHT22;6741;48.964;9.406;2024-03-08T00:01:00;2.70;99.90
13344;DHT22;6741;48.964;9.406;2024-03-08T00:03:27;2.60;99.90
13344;DHT22;6741;48.964;9.406;2024-03-08T00:05:54;2.60;99.90
13344;DHT22;6741;48.964;9.406;2024-03-08T00:08:22;2.60;99.90
13344;DHT22;6741;48.964;9.406;2024-03-08T00:10:50;2.60;99.90
13344;DHT22;6741;48.964;9.406;2024-03-08T00:13:17;2.50;99.90
13344;DHT22;6741;48.964;9.406;2024-03-08T00:15:45;2.40;99.90
13344;DHT22;6741;48.964;9.406;2024-03-08T00:18:13;2.40;99.90
13344;DHT22;6741;48.964;9.406;2024-03-08T00:20:40;2.40;99.90
13344;DHT22;6741;48.964;9.406;2024-03-08T00:23:07;2.30;99.90
13344;DHT22;6741;48.964;9.406;2024-03-08T00:25:34;2.20;99.90
13344;DHT22;6741;48.964;9.406;2024-03-08T00:28:01;2.10;99.90
13344;DHT22;6741;48.964;9.406;2024-03-08T00:30:28;2.10;99.90
13344;DHT22;6741;48.964;9.406;2024-03-08T00:32:58;2.00;99.90
13344;DHT22;6741;48.964;9.406;2024-03-08T00:35:25;2.00;99.90
13344;DHT22;6741;48.964;9.406;2024-03-08T00:37:52;1.90;99.90
13344;DHT22;6741;48.964;9.406;2024-03-08T00:40:22;1.90;99.90
13344;DHT22;6741;48.964;9.406;2024-03-08T00:42:49;1.80;99.90
13344;DHT22;6741;48.964;9.406;2024-03-08T00:45:16;1.80;99.90
13344;DHT22;6741;48.964;9.406;2024-03-08T00:47:43;1.80;99.90
13344;DHT22;6741;48.964;9.406;2024-03-08T00:50:11;1.90;99.90
13344;DHT22;6741;48.964;9.406;2024-03-08T00:52:39;1.80;99.90
13344;DHT22;6741;48.964;9.406;2024-03-08T00:55:07;1.80;99.90
13344;DHT22;6741;48.964;9.406;2024-03-08T00:57:36;1.80;99.90
13344;DHT22;6741;48.964;9.406;2024-03-08T01:00:05;1.70;99.90
13344;DHT22;6741;48.964;9.406;2024-03-08T01:02:37;1.70;99.90
13344;DHT22;6741;48.964;9.406;2024-03-08T01:05:04;1.70;99.90
13344;DHT22;6741;48.964;9.406;2024-03-08T01:07:34;1.70;99.90
13344;DHT22;6741;48.964;9.406;2024-03-08T01:10:01;1.70;99.90
13344;DHT22;6741;48.964;9.406;2024-03-08T01:12:28;1.80;99.90
13344;DHT22;6741;48.964;9.406;2024-03-08T01:14:56;1.70;99.90
13344;DHT22;6741;48.964;9.406;2024-03-08T01:17:23;1.70;99.90
13344;DHT22;6741;48.964;9.406;2024-03-08T01:19:50;1.60;99.90
13344;DHT22;6741;48.964;9.406;2024-03-08T01:22:17;1.50;99.90
13344;DHT22;6741;48.964;9.406;2024-03-08T01:24:46;1.50;99.90
13344;DHT22;6741;48.964;9.406;2024-03-08T01:27:12;1.40;99.90
13344;DHT22;6741;48.964;9.406;2024-03-08T01:29:39;1.40;99.90
13344;DHT22;6741;48.964;9.406;2024-03-08T01:32:06;1.40;99.90
13344;DHT22;6741;48.964;9.406;2024-03-08T01:34:33;1.30;99.90
13344;DHT22;6741;48.964;9.406;2024-03-08T01:37:00;1.20;99.90
13344;DHT22;6741;48.964;9.406;2024-03-08T01:39:27;1.20;99.90
13344;DHT22;6741;48.964;9.406;2024-03-08T01:41:55;1.10;99.90
13344;DHT22;6741;48.964;9.406;2024-03-08T01:44:22;1.10;99.90
13344;DHT22;6741;48.964;9.406;2024-03-08T01:46:49;1.20;99.90
13344;DHT22;6741;48.964;9.406;2024-03-08T01:49:18;1.20;99.90
13344;DHT22;6741;48.964;9.406;2024-03-08T01:51:47;1.20;99.90
13344;DHT22;6741;48.964;9.406;2024-03-08T01:54:16;1.20;99.90
13344;DHT22;6741;48.964;9.406;2024-03-08T01:56:43;1.20;99.90
13344;DHT22;6741;48.964;9.406;2024-03-08T01:59:11;1.20;99.90
13344;DHT22;6741;48.964;9.406;2024-03-08T02:01:40;1.20;99.90
13344;DHT22;6741;48.964;9.406;2024-03-08T02:04:07;1.20;99.90
13344;DHT22;6741;48.964;9.406;2024-03-08T02:06:34;1.20;99.90
13344;DHT22;6741;48.964;9.406;2024-03-08T02:09:02;1.40;99.90
13344;DHT22;6741;48.964;9.406;2024-03-08T02:11:31;1.30;99.90
13344;DHT22;6741;48.964;9.406;2024-03-08T02:13:58;1.30;99.90
13344;DHT22;6741;48.964;9.406;2024-03-08T02:16:26;1.40;99.90
13344;DHT22;6741;48.964;9.406;2024-03-08T02:18:53;1.30;99.90
13344;DHT22;6741;48.964;9.406;2024-03-08T02:21:21;1.30;99.90
13344;DHT22;6741;48.964;9.406;2024-03-08T02:23:48;1.20;99.90
13344;DHT22;6741;48.964;9.406;2024-03-08T02:26:17;1.10;99.90
13344;DHT22;6741;48.964;9.406;2024-03-08T02:28:44;1.10;99.90
13344;DHT22;6741;48.964;9.406;2024-03-08T02:31:11;1.00;99.90
13344;DHT22;6741;48.964;9.406;2024-03-08T02:33:38;1.00;99.90
13344;DHT22;6741;48.964;9.406;2024-03-08T02:36:06;1.10;99.90
13344;DHT22;6741;48.964;9.406;2024-03-08T02:38:34;1.20;99.90
13344;DHT22;6741;48.964;9.406;2024-03-08T02:41:01;1.20;99.90
13344;DHT22;6741;48.964;9.406;2024-03-08T02:43:29;1.30;99.90
13344;DHT22;6741;48.964;9.406;2024-03-08T02:45:56;1.20;99.90
13344;DHT22;6741;48.964;9.406;2024-03-08T02:48:23;1.30;99.90
13344;DHT22;6741;48.964;9.406;2024-03-08T02:50:49;1.40;99.90
13344;DHT22;6741;48.964;9.406;2024-03-08T02:53:17;1.40;99.90
13344;DHT22;6741;48.964;9.406;2024-03-08T02:55:46;1.40;99.90
13344;DHT22;6741;48.964;9.406;2024-03-08T02:58:13;1.50;99.90
13344;DHT22;6741;48.964;9.406;2024-03-08T03:00:40;1.50;99.90
13344;DHT22;6741;48.964;9.406;2024-03-08T03:03:09;1.40;99.90
13344;DHT22;6741;48.964;9.406;2024-03-08T03:05:36;1.40;99.90
13344;DHT22;6741;48.964;9.406;2024-03-08T03:08:03;1.30;99.90
13344;DHT22;6741;48.964;9.406;2024-03-08T03:10:34;1.40;99.90
13344;DHT22;6741;48.964;9.406;2024-03-08T03:13:03;1.40;99.90
13344;DHT22;6741;48.964;9.406;2024-03-08T03:15:30;1.40;99.90
13344;DHT22;6741;48.964;9.406;2024-03-08T03:17:57;1.50;99.90
13344;DHT22;6741;48.964;9.406;2024-03-08T03:20:24;1.40;99.90
13344;DHT22;6741;48.964;9.406;2024-03-08T03:22:52;1.40;99.90
13344;DHT22;6741;48.964;9.406;2024-03-08T03:25:19;1.40;99.90
13344;DHT22;6741;48.964;9.406;2024-03-08T03:27:51;1.60;99.90
13344;DHT22;6741;48.964;9.406;2024-03-08T03:30:19;1.50;99.90
13344;DHT22;6741;48.964;9.406;2024-03-08T03:32:47;1.40;99.90
13344;DHT22;6741;48.964;9.406;2024-03-08T03:35:15;1.40;99.90
13344;DHT22;6741;48.964;9.406;2024-03-08T03:37:42;1.40;99.90
13344;DHT22;6741;48.964;9.406;2024-03-08T03:40:12;1.40;99.90
13344;DHT22;6741;48.964;9.406;2024-03-08T03:42:39;1.40;99.90
13344;DHT22;6741;48.964;9.406;2024-03-08T03:45:07;1.40;99.90
13344;DHT22;6741;48.964;9.406;2024-03-08T03:47:36;1.40;99.90
13344;DHT22;6741;48.964;9.406;2024-03-08T03:50:06;1.30;99.90
13344;DHT22;6741;48.964;9.406;2024-03-08T03:52:34;1.30;99.90
13344;DHT22;6741;48.964;9.406;2024-03-08T03:55:01;1.30;99.90
13344;DHT22;6741;48.964;9.406;2024-03-08T03:57:29;1.30;99.90
13344;DHT22;6741;48.964;9.406;2024-03-08T03:59:56;1.30;99.90
13344;DHT22;6741;48.964;9.406;2024-03-08T04:02:24;1.20;99.90
13344;DHT22;6741;48.964;9.406;2024-03-08T04:04:53;1.20;99.90
13344;DHT22;6741;48.964;9.406;2024-03-08T04:07:21;1.10;99.90
13344;DHT22;6741;48.964;9.406;2024-03-08T04:09:48;1.10;99.90
13344;DHT22;6741;48.964;9.406;2024-03-08T04:12:15;1.10;99.90
13344;DHT22;6741;48.964;9.406;2024-03-08T04:14:45;1.20;99.90
13344;DHT22;6741;48.964;9.406;2024-03-08T04:17:12;1.20;99.90
13344;DHT22;6741;48.964;9.406;2024-03-08T04:19:39;1.20;99.90
13344;DHT22;6741;48.964;9.406;2024-03-08T04:22:07;1.20;99.90
13344;DHT22;6741;48.964;9.406;2024-03-08T04:24:34;1.10;99.90
13344;DHT22;6741;48.964;9.406;2024-03-08T04:27:01;1.10;99.90
13344;DHT22;6741;48.964;9.406;2024-03-08T04:29:28;1.10;99.90
13344;DHT22;6741;48.964;9.406;2024-03-08T04:31:55;1.10;99.90
13344;DHT22;6741;48.964;9.406;2024-03-08T04:34:21;1.10;99.90
13344;DHT22;6741;48.964;9.406;2024-03-08T04:36:49;1.10;99.90
13344;DHT22;6741;48.964;9.406;2024-03-08T04:39:17;1.00;99.90
13344;DHT22;6741;48.964;9.406;2024-03-08T04:41:44;1.00;99.90
13344;DHT22;6741;48.964;9.406;2024-03-08T04:44:11;1.10;99.90
13344;DHT22;6741;48.964;9.406;2024-03-08T04:46:39;1.10;99.90
13344;DHT22;6741;48.964;9.406;2024-03-08T04:49:06;1.00;99.90
13344;DHT22;6741;48.964;9.406;2024-03-08T04:51:34;1.10;99.90
13344;DHT22;6741;48.964;9.406;2024-03-08T04:54:00;1.10;99.90
13344;DHT22;6741;48.964;9.406;2024-03-08T04:56:29;1.10;99.90
13344;DHT22;6741;48.964;9.406;2024-03-08T04:58:55;1.10;99.90
13344;DHT22;6741;48.964;9.406;2024-03-08T05:01:23;1.00;99.90
13344;DHT22;6741;48.964;9.406;2024-03-08T05:03:50;1.00;99.90
13344;DHT22;6741;48.964;9.406;2024-03-08T05:06:19;0.90;99.90
13344;DHT22;6741;48.964;9.406;2024-03-08T05:08:46;0.90;99.90
13344;DHT22;6741;48.964;9.406;2024-03-08T05:11:13;1.00;99.90
13344;DHT22;6741;48.964;9.406;2024-03-08T05:13:42;1.10;99.90
13344;DHT22;6741;48.964;9.406;2024-03-08T05:16:09;1.00;99.90
13344;DHT22;6741;48.964;9.406;2024-03-08T05:18:36;0.90;99.90
13344;DHT22;6741;48.964;9.406;2024-03-08T05:21:03;1.00;99.90
13344;DHT22;6741;48.964;9.406;2024-03-08T05:23:29;1.00;99.90
13344;DHT22;6741;48.964;9.406;2024-03-08T05:25:56;1.00;99.90
13344;DHT22;6741;48.964;9.406;2024-03-08T05:28:23;0.90;99.90
13344;DHT22;6741;48.964;9.406;2024-03-08T05:30:52;0.90;99.90
13344;DHT22;6741;48.964;9.406;2024-03-08T05:33:21;0.90;99.90
13344;DHT22;6741;48.964;9.406;2024-03-08T05:35:49;0.90;99.90
13344;DHT22;6741;48.964;9.406;2024-03-08T05:38:17;0.90;99.90
13344;DHT22;6741;48.964;9.406;2024-03-08T05:40:46;0.90;99.90
13344;DHT22;6741;48.964;9.406;2024-03-08T05:43:13;0.90;99.90
13344;DHT22;6741;48.964;9.406;2024-03-08T05:45:43;1.00;99.90
13344;DHT22;6741;48.964;9.406;2024-03-08T05:48:11;1.00;99.90
13344;DHT22;6741;48.964;9.406;2024-03-08T05:50:39;0.90;99.90
13344;DHT22;6741;48.964;9.406;2024-03-08T05:53:06;0.90;99.90
13344;DHT22;6741;48.964;9.406;2024-03-08T05:55:34;0.90;99.90
13344;DHT22;6741;48.964;9.406;2024-03-08T05:58:01;1.20;99.90
13344;DHT22;6741;48.964;9.406;2024-03-08T06:00:30;0.90;99.90
13344;DHT22;6741;48.964;9.406;2024-03-08T06:02:58;0.70;99.90
13344;DHT22;6741;48.964;9.406;2024-03-08T06:05:28;0.70;99.90
13344;DHT22;6741;48.964;9.406;2024-03-08T06:07:57;0.60;99.90
13344;DHT22;6741;48.964;9.406;2024-03-08T06:10:33;0.60;99.90
13344;DHT22;6741;48.964;9.406;2024-03-08T06:13:01;0.60;99.90
13344;DHT22;6741;48.964;9.406;2024-03-08T06:15:28;0.60;99.90
13344;DHT22;6741;48.964;9.406;2024-03-08T06:17:55;0.60;99.90
13344;DHT22;6741;48.964;9.406;2024-03-08T06:20:22;0.70;99.90
13344;DHT22;6741;48.964;9.406;2024-03-08T06:22:53;0.70;99.90
13344;DHT22;6741;48.964;9.406;2024-03-08T06:25:20;0.70;99.90
13344;DHT22;6741;48.964;9.406;2024-03-08T06:27:47;0.90;99.90
13344;DHT22;6741;48.964;9.406;2024-03-08T06:30:14;0.70;99.90
13344;DHT22;6741;48.964;9.406;2024-03-08T06:32:42;0.70;99.90
13344;DHT22;6741;48.964;9.406;2024-03-08T06:35:09;0.80;99.90
13344;DHT22;6741;48.964;9.406;2024-03-08T06:37:36;0.70;99.90
13344;DHT22;6741;48.964;9.406;2024-03-08T06:40:06;0.70;99.90
13344;DHT22;6741;48.964;9.406;2024-03-08T06:42:33;0.70;99.90
13344;DHT22;6741;48.964;9.406;2024-03-08T06:45:00;0.90;99.90
13344;DHT22;6741;48.964;9.406;2024-03-08T06:47:30;1.00;99.90
13344;DHT22;6741;48.964;9.406;2024-03-08T06:49:57;1.00;99.90
13344;DHT22;6741;48.964;9.406;2024-03-08T06:52:24;1.10;99.90
13344;DHT22;6741;48.964;9.406;2024-03-08T06:54:51;1.10;99.90
13344;DHT22;6741;48.964;9.406;2024-03-08T06:57:19;1.20;99.90
13344;DHT22;6741;48.964;9.406;2024-03-08T06:59:47;1.30;99.90
13344;DHT22;6741;48.964;9.406;2024-03-08T07:02:14;1.40;99.90
13344;DHT22;6741;48.964;9.406;2024-03-08T07:04:41;1.50;99.90
13344;DHT22;6741;48.964;9.406;2024-03-08T07:07:08;1.60;99.90
13344;DHT22;6741;48.964;9.406;2024-03-08T07:09:35;1.70;99.90
13344;DHT22;6741;48.964;9.406;2024-03-08T07:12:02;1.70;99.90
13344;DHT22;6741;48.964;9.406;2024-03-08T07:14:31;1.90;99.90
13344;DHT22;6741;48.964;9.406;2024-03-08T07:16:58;2.00;99.90
13344;DHT22;6741;48.964;9.406;2024-03-08T07:19:24;2.10;99.90
13344;DHT22;6741;48.964;9.406;2024-03-08T07:21:51;2.20;99.90
13344;DHT22;6741;48.964;9.406;2024-03-08T07:24:18;2.30;99.90
13344;DHT22;6741;48.964;9.406;2024-03-08T07:27:03;2.30;99.90
13344;DHT22;6741;48.964;9.406;2024-03-08T07:29:32;2.60;99.90
13344;DHT22;6741;48.964;9.406;2024-03-08T07:31:59;2.70;99.90
13344;DHT22;6741;48.964;9.406;2024-03-08T07:34:38;2.80;99.90
13344;DHT22;6741;48.964;9.406;2024-03-08T07:37:05;2.80;99.90
13344;DHT22;6741;48.964;9.406;2024-03-08T07:39:33;3.00;99.90
13344;DHT22;6741;48.964;9.406;2024-03-08T07:41:59;3.10;99.90
13344;DHT22;6741;48.964;9.406;2024-03-08T07:44:26;3.10;99.90
13344;DHT22;6741;48.964;9.406;2024-03-08T07:46:54;3.40;99.90
13344;DHT22;6741;48.964;9.406;2024-03-08T07:49:21;3.30;99.90
13344;DHT22;6741;48.964;9.406;2024-03-08T07:51:48;3.40;99.90
13344;DHT22;6741;48.964;9.406;2024-03-08T07:54:15;3.30;99.90
13344;DHT22;6741;48.964;9.406;2024-03-08T07:56:42;3.30;99.90
13344;DHT22;6741;48.964;9.406;2024-03-08T07:59:09;3.30;99.90
13344;DHT22;6741;48.964;9.406;2024-03-08T08:01:37;3.30;99.90
13344;DHT22;6741;48.964;9.406;2024-03-08T08:04:05;3.30;99.90
13344;DHT22;6741;48.964;9.406;2024-03-08T08:06:35;3.30;99.90
13344;DHT22;6741;48.964;9.406;2024-03-08T08:09:03;3.20;99.90
13344;DHT22;6741;48.964;9.406;2024-03-08T08:11:31;3.20;99.90
13344;DHT22;6741;48.964;9.406;2024-03-08T08:13:58;3.50;99.90
13344;DHT22;6741;48.964;9.406;2024-03-08T08:16:26;3.30;99.90
13344;DHT22;6741;48.964;9.406;2024-03-08T08:18:53;3.40;99.90
13344;DHT22;6741;48.964;9.406;2024-03-08T08:21:21;3.50;99.90
13344;DHT22;6741;48.964;9.406;2024-03-08T08:23:50;3.50;99.90
13344;DHT22;6741;48.964;9.406;2024-03-08T08:26:17;3.50;99.90
13344;DHT22;6741;48.964;9.406;2024-03-08T08:28:44;3.60;99.90
13344;DHT22;6741;48.964;9.406;2024-03-08T08:31:11;3.60;99.90
13344;DHT22;6741;48.964;9.406;2024-03-08T08:33:38;3.70;99.90
13344;DHT22;6741;48.964;9.406;2024-03-08T08:36:06;3.60;99.90
13344;DHT22;6741;48.964;9.406;2024-03-08T08:38:34;3.60;99.90
13344;DHT22;6741;48.964;9.406;2024-03-08T08:41:01;3.60;99.90
13344;DHT22;6741;48.964;9.406;2024-03-08T08:43:28;3.60;99.90
13344;DHT22;6741;48.964;9.406;2024-03-08T08:45:55;3.70;99.90
13344;DHT22;6741;48.964;9.406;2024-03-08T08:48:22;3.70;99.90
13344;DHT22;6741;48.964;9.406;2024-03-08T08:50:50;3.70;99.90
13344;DHT22;6741;48.964;9.406;2024-03-08T08:53:17;3.60;99.90
13344;DHT22;6741;48.964;9.406;2024-03-08T08:55:46;3.70;99.90
13344;DHT22;6741;48.964;9.406;2024-03-08T08:58:13;3.70;99.90
13344;DHT22;6741;48.964;9.406;2024-03-08T09:00:40;3.80;99.90
13344;DHT22;6741;48.964;9.406;2024-03-08T09:03:07;3.90;99.90
13344;DHT22;6741;48.964;9.406;2024-03-08T09:05:34;3.80;99.90
13344;DHT22;6741;48.964;9.406;2024-03-08T09:08:01;4.00;99.90
13344;DHT22;6741;48.964;9.406;2024-03-08T09:10:28;4.10;99.90
13344;DHT22;6741;48.964;9.406;2024-03-08T09:12:56;4.20;99.90
13344;DHT22;6741;48.964;9.406;2024-03-08T09:15:24;4.20;99.90
13344;DHT22;6741;48.964;9.406;2024-03-08T09:17:53;4.30;99.90
13344;DHT22;6741;48.964;9.406;2024-03-08T09:20:21;4.50;99.90
13344;DHT22;6741;48.964;9.406;2024-03-08T09:22:47;4.40;99.90
13344;DHT22;6741;48.964;9.406;2024-03-08T09:25:14;4.60;99.90
13344;DHT22;6741;48.964;9.406;2024-03-08T09:27:41;4.70;99.90
13344;DHT22;6741;48.964;9.406;2024-03-08T09:30:11;4.70;99.90
13344;DHT22;6741;48.964;9.406;2024-03-08T09:32:38;4.70;99.90
13344;DHT22;6741;48.964;9.406;2024-03-08T09:35:06;4.90;99.90
13344;DHT22;6741;48.964;9.406;2024-03-08T09:37:33;5.10;99.90
13344;DHT22;6741;48.964;9.406;2024-03-08T09:40:00;5.00;99.90
13344;DHT22;6741;48.964;9.406;2024-03-08T09:42:30;4.90;99.90
13344;DHT22;6741;48.964;9.406;2024-03-08T09:44:57;4.90;99.90
13344;DHT22;6741;48.964;9.406;2024-03-08T09:47:28;4.90;99.90
13344;DHT22;6741;48.964;9.406;2024-03-08T09:49:59;5.10;99.90
13344;DHT22;6741;48.964;9.406;2024-03-08T09:52:26;5.20;99.90
13344;DHT22;6741;48.964;9.406;2024-03-08T09:54:56;5.50;99.90
13344;DHT22;6741;48.964;9.406;2024-03-08T09:57:23;5.70;99.90
13344;DHT22;6741;48.964;9.406;2024-03-08T09:59:51;5.50;99.90
13344;DHT22;6741;48.964;9.406;2024-03-08T10:02:18;5.70;99.90
13344;DHT22;6741;48.964;9.406;2024-03-08T10:04:48;6.10;99.90
13344;DHT22;6741;48.964;9.406;2024-03-08T10:07:15;6.40;99.90
13344;DHT22;6741;48.964;9.406;2024-03-08T10:09:41;6.60;99.90
13344;DHT22;6741;48.964;9.406;2024-03-08T10:12:16;6.80;99.90
13344;DHT22;6741;48.964;9.406;2024-03-08T10:14:43;6.80;99.90
13344;DHT22;6741;48.964;9.406;2024-03-08T10:17:10;6.90;99.90
13344;DHT22;6741;48.964;9.406;2024-03-08T10:19:37;6.90;99.90
13344;DHT22;6741;48.964;9.406;2024-03-08T10:22:05;7.00;99.90
13344;DHT22;6741;48.964;9.406;2024-03-08T10:24:33;7.20;99.90
13344;DHT22;6741;48.964;9.406;2024-03-08T10:27:01;7.60;99.90
13344;DHT22;6741;48.964;9.406;2024-03-08T10:29:30;8.20;99.90
13344;DHT22;6741;48.964;9.406;2024-03-08T10:31:57;8.80;99.90
13344;DHT22;6741;48.964;9.406;2024-03-08T10:34:25;9.10;99.90
13344;DHT22;6741;48.964;9.406;2024-03-08T10:36:52;9.20;99.90
13344;DHT22;6741;48.964;9.406;2024-03-08T10:39:23;9.00;99.90
13344;DHT22;6741;48.964;9.406;2024-03-08T10:41:54;8.80;99.90
13344;DHT22;6741;48.964;9.406;2024-03-08T10:44:39;9.00;99.90
13344;DHT22;6741;48.964;9.406;2024-03-08T10:47:15;9.90;99.90
13344;DHT22;6741;48.964;9.406;2024-03-08T10:49:50;11.10;99.90
13344;DHT22;6741;48.964;9.406;2024-03-08T10:52:19;11.50;99.90
13344;DHT22;6741;48.964;9.406;2024-03-08T10:54:48;11.40;99.90
13344;DHT22;6741;48.964;9.406;2024-03-08T10:57:17;12.10;99.90
13344;DHT22;6741;48.964;9.406;2024-03-08T10:59:46;11.60;99.90
13344;DHT22;6741;48.964;9.406;2024-03-08T11:02:16;11.40;99.90
13344;DHT22;6741;48.964;9.406;2024-03-08T11:04:46;10.50;99.90
13344;DHT22;6741;48.964;9.406;2024-03-08T11:07:14;10.20;99.90
13344;DHT22;6741;48.964;9.406;2024-03-08T11:09:48;10.60;99.90
13344;DHT22;6741;48.964;9.406;2024-03-08T11:12:25;11.50;99.90
13344;DHT22;6741;48.964;9.406;2024-03-08T11:14:55;12.30;99.90
13344;DHT22;6741;48.964;9.406;2024-03-08T11:17:39;11.80;99.90
13344;DHT22;6741;48.964;9.406;2024-03-08T11:20:10;12.10;99.90
13344;DHT22;6741;48.964;9.406;2024-03-08T11:22:41;12.90;99.90
13344;DHT22;6741;48.964;9.406;2024-03-08T11:25:31;13.20;99.90
13344;DHT22;6741;48.964;9.406;2024-03-08T11:28:17;13.40;99.90
13344;DHT22;6741;48.964;9.406;2024-03-08T11:30:45;13.90;99.90
13344;DHT22;6741;48.964;9.406;2024-03-08T11:33:15;14.30;99.90
13344;DHT22;6741;48.964;9.406;2024-03-08T11:35:42;13.90;99.90
13344;DHT22;6741;48.964;9.406;2024-03-08T11:38:12;14.20;99.90
13344;DHT22;6741;48.964;9.406;2024-03-08T11:40:41;14.60;99.90
13344;DHT22;6741;48.964;9.406;2024-03-08T11:43:08;14.60;99.90
13344;DHT22;6741;48.964;9.406;2024-03-08T11:45:36;14.40;99.90
13344;DHT22;6741;48.964;9.406;2024-03-08T11:48:04;14.10;99.90
13344;DHT22;6741;48.964;9.406;2024-03-08T11:50:31;14.90;99.90
13344;DHT22;6741;48.964;9.406;2024-03-08T11:53:02;15.20;99.90
13344;DHT22;6741;48.964;9.406;2024-03-08T11:55:30;16.50;99.90
13344;DHT22;6741;48.964;9.406;2024-03-08T11:58:02;16.70;99.90
13344;DHT22;6741;48.964;9.406;2024-03-08T12:00:30;17.20;99.90
13344;DHT22;6741;48.964;9.406;2024-03-08T12:03:07;17.40;99.90
13344;DHT22;6741;48.964;9.406;2024-03-08T12:05:35;17.80;99.90
13344;DHT22;6741;48.964;9.406;2024-03-08T12:08:04;17.70;99.90
13344;DHT22;6741;48.964;9.406;2024-03-08T12:10:32;17.70;99.50
13344;DHT22;6741;48.964;9.406;2024-03-08T12:13:02;18.20;94.40
13344;DHT22;6741;48.964;9.406;2024-03-08T12:15:29;18.60;74.20
13344;DHT22;6741;48.964;9.406;2024-03-08T12:17:59;19.30;75.70
13344;DHT22;6741;48.964;9.406;2024-03-08T12:20:27;19.10;85.00
13344;DHT22;6741;48.964;9.406;2024-03-08T12:22:55;19.40;55.50
13344;DHT22;6741;48.964;9.406;2024-03-08T12:25:25;18.20;36.90
13344;DHT22;6741;48.964;9.406;2024-03-08T12:27:52;18.10;42.50
13344;DHT22;6741;48.964;9.406;2024-03-08T12:30:24;18.00;36.20
13344;DHT22;6741;48.964;9.406;2024-03-08T12:32:54;17.80;34.10
13344;DHT22;6741;48.964;9.406;2024-03-08T12:35:24;18.00;36.80
13344;DHT22;6741;48.964;9.406;2024-03-08T12:37:53;18.30;36.70
13344;DHT22;6741;48.964;9.406;2024-03-08T12:40:25;19.00;29.40
13344;DHT22;6741;48.964;9.406;2024-03-08T12:42:54;19.10;51.30
13344;DHT22;6741;48.964;9.406;2024-03-08T12:45:23;20.20;21.70
13344;DHT22;6741;48.964;9.406;2024-03-08T12:47:50;20.60;16.20
13344;DHT22;6741;48.964;9.406;2024-03-08T12:50:18;20.70;9.80
13344;DHT22;6741;48.964;9.406;2024-03-08T12:52:45;20.70;5.10
13344;DHT22;6741;48.964;9.406;2024-03-08T12:55:12;21.10;1.00
13344;DHT22;6741;48.964;9.406;2024-03-08T12:57:39;20.30;1.00
13344;DHT22;6741;48.964;9.406;2024-03-08T13:00:07;21.00;1.00
13344;DHT22;6741;48.964;9.406;2024-03-08T13:02:40;21.30;1.00
13344;DHT22;6741;48.964;9.406;2024-03-08T13:05:07;22.00;1.00
13344;DHT22;6741;48.964;9.406;2024-03-08T13:07:36;21.30;1.00
13344;DHT22;6741;48.964;9.406;2024-03-08T13:10:04;21.10;1.00
13344;DHT22;6741;48.964;9.406;2024-03-08T13:12:32;21.30;1.00
13344;DHT22;6741;48.964;9.406;2024-03-08T13:15:00;21.70;1.00
13344;DHT22;6741;48.964;9.406;2024-03-08T13:17:27;21.80;1.00
13344;DHT22;6741;48.964;9.406;2024-03-08T13:19:56;22.10;1.00
13344;DHT22;6741;48.964;9.406;2024-03-08T13:22:24;21.90;1.00
13344;DHT22;6741;48.964;9.406;2024-03-08T13:24:51;21.20;1.00
13344;DHT22;6741;48.964;9.406;2024-03-08T13:27:18;21.00;1.00
13344;DHT22;6741;48.964;9.406;2024-03-08T13:29:49;21.60;1.00
13344;DHT22;6741;48.964;9.406;2024-03-08T13:32:16;21.60;1.00
13344;DHT22;6741;48.964;9.406;2024-03-08T13:34:46;20.80;1.00
13344;DHT22;6741;48.964;9.406;2024-03-08T13:37:16;21.40;1.00
13344;DHT22;6741;48.964;9.406;2024-03-08T13:39:43;21.30;1.00
13344;DHT22;6741;48.964;9.406;2024-03-08T13:42:11;21.20;1.00
13344;DHT22;6741;48.964;9.406;2024-03-08T13:44:39;21.50;1.00
13344;DHT22;6741;48.964;9.406;2024-03-08T13:47:09;22.00;1.00
13344;DHT22;6741;48.964;9.406;2024-03-08T13:49:37;22.40;1.00
13344;DHT22;6741;48.964;9.406;2024-03-08T13:52:05;22.30;1.00
13344;DHT22;6741;48.964;9.406;2024-03-08T13:54:35;22.00;1.00
13344;DHT22;6741;48.964;9.406;2024-03-08T13:57:02;21.70;1.00
13344;DHT22;6741;48.964;9.406;2024-03-08T13:59:30;21.00;1.00
13344;DHT22;6741;48.964;9.406;2024-03-08T14:01:58;20.50;1.00
13344;DHT22;6741;48.964;9.406;2024-03-08T14:04:26;21.50;1.00
13344;DHT22;6741;48.964;9.406;2024-03-08T14:06:53;21.50;1.00
13344;DHT22;6741;48.964;9.406;2024-03-08T14:09:23;22.10;1.00
13344;DHT22;6741;48.964;9.406;2024-03-08T14:11:51;21.90;1.00
13344;DHT22;6741;48.964;9.406;2024-03-08T14:14:20;21.80;1.00
13344;DHT22;6741;48.964;9.406;2024-03-08T14:16:48;22.20;1.00
13344;DHT22;6741;48.964;9.406;2024-03-08T14:19:18;22.60;1.00
13344;DHT22;6741;48.964;9.406;2024-03-08T14:21:45;22.90;1.00
13344;DHT22;6741;48.964;9.406;2024-03-08T14:24:14;23.50;1.00
13344;DHT22;6741;48.964;9.406;2024-03-08T14:26:41;23.30;1.00
13344;DHT22;6741;48.964;9.406;2024-03-08T14:29:10;21.30;1.00
13344;DHT22;6741;48.964;9.406;2024-03-08T14:31:38;21.50;1.00
13344;DHT22;6741;48.964;9.406;2024-03-08T14:34:06;20.90;1.00
13344;DHT22;6741;48.964;9.406;2024-03-08T14:36:33;19.70;1.00
13344;DHT22;6741;48.964;9.406;2024-03-08T14:39:00;19.20;1.00
13344;DHT22;6741;48.964;9.406;2024-03-08T14:41:27;20.00;1.00
13344;DHT22;6741;48.964;9.406;2024-03-08T14:43:56;20.60;1.00
13344;DHT22;6741;48.964;9.406;2024-03-08T14:46:27;20.50;1.00
13344;DHT22;6741;48.964;9.406;2024-03-08T14:48:54;20.50;1.00
13344;DHT22;6741;48.964;9.406;2024-03-08T14:51:22;20.40;1.00
13344;DHT22;6741;48.964;9.406;2024-03-08T14:53:51;20.70;1.00
13344;DHT22;6741;48.964;9.406;2024-03-08T14:56:20;20.30;1.00
13344;DHT22;6741;48.964;9.406;2024-03-08T14:58:48;20.60;1.00
13344;DHT22;6741;48.964;9.406;2024-03-08T15:01:17;20.30;1.00
13344;DHT22;6741;48.964;9.406;2024-03-08T15:03:49;19.50;1.00
13344;DHT22;6741;48.964;9.406;2024-03-08T15:06:16;18.70;1.00
13344;DHT22;6741;48.964;9.406;2024-03-08T15:08:47;19.20;1.00
13344;DHT22;6741;48.964;9.406;2024-03-08T15:11:14;20.10;1.00
13344;DHT22;6741;48.964;9.406;2024-03-08T15:13:47;19.10;1.00
13344;DHT22;6741;48.964;9.406;2024-03-08T15:16:17;18.90;1.00
13344;DHT22;6741;48.964;9.406;2024-03-08T15:18:44;18.90;1.00
13344;DHT22;6741;48.964;9.406;2024-03-08T15:21:14;18.70;1.00
13344;DHT22;6741;48.964;9.406;2024-03-08T15:23:44;17.90;1.00
13344;DHT22;6741;48.964;9.406;2024-03-08T15:26:15;17.20;1.00
13344;DHT22;6741;48.964;9.406;2024-03-08T15:28:42;16.70;1.00
13344;DHT22;6741;48.964;9.406;2024-03-08T15:31:11;16.70;1.00
13344;DHT22;6741;48.964;9.406;2024-03-08T15:33:39;15.40;1.00
13344;DHT22;6741;48.964;9.406;2024-03-08T15:36:10;14.00;1.00
13344;DHT22;6741;48.964;9.406;2024-03-08T15:38:41;13.10;1.00
13344;DHT22;6741;48.964;9.406;2024-03-08T15:41:09;12.20;1.00
13344;DHT22;6741;48.964;9.406;2024-03-08T15:43:38;11.80;1.00
13344;DHT22;6741;48.964;9.406;2024-03-08T15:46:05;11.40;1.00
13344;DHT22;6741;48.964;9.406;2024-03-08T15:48:32;11.00;1.00
13344;DHT22;6741;48.964;9.406;2024-03-08T15:51:00;10.90;1.30
13344;DHT22;6741;48.964;9.406;2024-03-08T15:53:30;10.80;13.40
13344;DHT22;6741;48.964;9.406;2024-03-08T15:55:58;10.60;27.30
13344;DHT22;6741;48.964;9.406;2024-03-08T15:58:25;10.40;40.30
13344;DHT22;6741;48.964;9.406;2024-03-08T16:00:52;10.30;56.50
13344;DHT22;6741;48.964;9.406;2024-03-08T16:03:21;10.20;93.70
13344;DHT22;6741;48.964;9.406;2024-03-08T16:05:48;10.10;99.90